sensor_id;sensor_type;location;lat;lon;timestamp;temperature;humidity
64880;HTU21D;51374;45.124;36.712;2023-02-11T00:01:31;0.00;0.00
64880;HTU21D;51374;45.124;36.712;2023-02-11T00:03:58;0.00;0.00
64880;HTU21D;51374;45.124;36.712;2023-02-11T00:06:26;0.00;0.00
64880;HTU21D;51374;45.124;36.712;2023-02-11T00:08:53;0.00;0.00
64880;HTU21D;51374;45.124;36.712;2023-02-11T00:11:21;0.00;0.00
64880;HTU21D;51374;45.124;36.712;2023-02-11T00:13:47;0.00;0.00
64880;HTU21D;51374;45.124;36.712;2023-02-11T00:16:17;0.00;0.00
64880;HTU21D;51374;45.124;36.712;2023-02-11T00:18:43;0.00;0.00
64880;HTU21D;51374;45.124;36.712;2023-02-11T00:21:11;0.00;0.00
64880;HTU21D;51374;45.124;36.712;2023-02-11T00:23:38;0.00;0.00
64880;HTU21D;51374;45.124;36.712;2023-02-11T00:26:14;0.00;0.00
64880;HTU21D;51374;45.124;36.712;2023-02-11T00:28:42;0.00;0.00
64880;HTU21D;51374;45.124;36.712;2023-02-11T00:31:10;0.00;0.00
64880;HTU21D;51374;45.124;36.712;2023-02-11T00:33:36;0.00;0.00
64880;HTU21D;51374;45.124;36.712;2023-02-11T00:36:07;0.00;0.00
64880;HTU21D;51374;45.124;36.712;2023-02-11T00:38:33;0.00;0.00
64880;HTU21D;51374;45.124;36.712;2023-02-11T00:40:59;0.00;0.00
64880;HTU21D;51374;45.124;36.712;2023-02-11T00:43:25;0.00;0.00
64880;HTU21D;51374;45.124;36.712;2023-02-11T00:45:51;0.00;0.00
64880;HTU21D;51374;45.124;36.712;2023-02-11T00:48:17;0.00;0.00
64880;HTU21D;51374;45.124;36.712;2023-02-11T00:50:43;0.00;0.00
64880;HTU21D;51374;45.124;36.712;2023-02-11T00:53:09;0.00;0.00
64880;HTU21D;51374;45.124;36.712;2023-02-11T00:55:35;0.00;0.00
64880;HTU21D;51374;45.124;36.712;2023-02-11T00:58:01;0.00;0.00
64880;HTU21D;51374;45.124;36.712;2023-02-11T01:00:27;0.00;0.00
64880;HTU21D;51374;45.124;36.712;2023-02-11T01:02:53;0.00;0.00
64880;HTU21D;51374;45.124;36.712;2023-02-11T01:05:21;0.00;0.00
64880;HTU21D;51374;45.124;36.712;2023-02-11T01:07:47;0.00;0.00
64880;HTU21D;51374;45.124;36.712;2023-02-11T01:10:14;0.00;0.00
64880;HTU21D;51374;45.124;36.712;2023-02-11T01:12:40;0.00;0.00
64880;HTU21D;51374;45.124;36.712;2023-02-11T01:15:07;0.00;0.00
64880;HTU21D;51374;45.124;36.712;2023-02-11T01:17:34;0.00;0.00
64880;HTU21D;51374;45.124;36.712;2023-02-11T01:20:05;0.00;0.00
64880;HTU21D;51374;45.124;36.712;2023-02-11T01:22:31;0.00;0.00
64880;HTU21D;51374;45.124;36.712;2023-02-11T01:24:59;0.00;0.00
64880;HTU21D;51374;45.124;36.712;2023-02-11T01:27:25;0.00;0.00
64880;HTU21D;51374;45.124;36.712;2023-02-11T01:29:51;0.00;0.00
64880;HTU21D;51374;45.124;36.712;2023-02-11T01:32:19;0.00;0.00
64880;HTU21D;51374;45.124;36.712;2023-02-11T01:34:45;0.00;0.00
64880;HTU21D;51374;45.124;36.712;2023-02-11T01:37:11;0.00;0.00
64880;HTU21D;51374;45.124;36.712;2023-02-11T01:39:37;0.00;0.00
64880;HTU21D;51374;45.124;36.712;2023-02-11T01:42:04;0.00;0.00
64880;HTU21D;51374;45.124;36.712;2023-02-11T01:46:56;0.00;0.00
64880;HTU21D;51374;45.124;36.712;2023-02-11T01:49:33;0.00;0.00
64880;HTU21D;51374;45.124;36.712;2023-02-11T01:52:17;0.00;0.00
64880;HTU21D;51374;45.124;36.712;2023-02-11T01:54:55;0.00;0.00
64880;HTU21D;51374;45.124;36.712;2023-02-11T01:57:43;0.00;0.00
64880;HTU21D;51374;45.124;36.712;2023-02-11T02:00:17;0.00;0.00
64880;HTU21D;51374;45.124;36.712;2023-02-11T02:05:34;0.00;0.00
64880;HTU21D;51374;45.124;36.712;2023-02-11T02:08:22;0.00;0.00
64880;HTU21D;51374;45.124;36.712;2023-02-11T02:10:51;0.00;0.00
64880;HTU21D;51374;45.124;36.712;2023-02-11T02:13:25;0.00;0.00
64880;HTU21D;51374;45.124;36.712;2023-02-11T02:15:54;0.00;0.00
64880;HTU21D;51374;45.124;36.712;2023-02-11T02:29:22;0.00;0.00
64880;HTU21D;51374;45.124;36.712;2023-02-11T02:37:35;0.00;0.00
64880;HTU21D;51374;45.124;36.712;2023-02-11T02:40:08;0.00;0.00
64880;HTU21D;51374;45.124;36.712;2023-02-11T02:42:35;0.00;0.00
64880;HTU21D;51374;45.124;36.712;2023-02-11T02:45:01;0.00;0.00
64880;HTU21D;51374;45.124;36.712;2023-02-11T02:47:27;0.00;0.00
64880;HTU21D;51374;45.124;36.712;2023-02-11T02:49:53;0.00;0.00
64880;HTU21D;51374;45.124;36.712;2023-02-11T02:55:05;0.00;0.00
64880;HTU21D;51374;45.124;36.712;2023-02-11T03:00:23;0.00;0.00
64880;HTU21D;51374;45.124;36.712;2023-02-11T03:11:34;0.00;0.00
64880;HTU21D;51374;45.124;36.712;2023-02-11T03:14:05;0.00;0.00
64880;HTU21D;51374;45.124;36.712;2023-02-11T03:16:32;0.00;0.00
64880;HTU21D;51374;45.124;36.712;2023-02-11T03:19:26;0.00;0.00
64880;HTU21D;51374;45.124;36.712;2023-02-11T03:21:53;0.00;0.00
64880;HTU21D;51374;45.124;36.712;2023-02-11T03:24:30;0.00;0.00
64880;HTU21D;51374;45.124;36.712;2023-02-11T03:27:02;0.00;0.00
64880;HTU21D;51374;45.124;36.712;2023-02-11T03:29:35;0.00;0.00
64880;HTU21D;51374;45.124;36.712;2023-02-11T03:32:31;0.00;0.00
64880;HTU21D;51374;45.124;36.712;2023-02-11T03:35:16;0.00;0.00
64880;HTU21D;51374;45.124;36.712;2023-02-11T03:37:52;0.00;0.00
64880;HTU21D;51374;45.124;36.712;2023-02-11T03:40:28;0.00;0.00
64880;HTU21D;51374;45.124;36.712;2023-02-11T03:43:04;0.00;0.00
64880;HTU21D;51374;45.124;36.712;2023-02-11T03:45:32;0.00;0.00
64880;HTU21D;51374;45.124;36.712;2023-02-11T03:48:15;0.00;0.00
64880;HTU21D;51374;45.124;36.712;2023-02-11T03:50:44;0.00;0.00
64880;HTU21D;51374;45.124;36.712;2023-02-11T03:53:12;0.00;0.00
64880;HTU21D;51374;45.124;36.712;2023-02-11T03:55:39;0.00;0.00
64880;HTU21D;51374;45.124;36.712;2023-02-11T03:58:06;0.00;0.00
64880;HTU21D;51374;45.124;36.712;2023-02-11T04:00:37;0.00;0.00
64880;HTU21D;51374;45.124;36.712;2023-02-11T04:03:04;0.00;0.00
64880;HTU21D;51374;45.124;36.712;2023-02-11T04:05:31;0.00;0.00
64880;HTU21D;51374;45.124;36.712;2023-02-11T04:07:57;0.00;0.00
64880;HTU21D;51374;45.124;36.712;2023-02-11T04:10:23;0.00;0.00
64880;HTU21D;51374;45.124;36.712;2023-02-11T04:12:49;0.00;0.00
64880;HTU21D;51374;45.124;36.712;2023-02-11T04:15:15;0.00;0.00
64880;HTU21D;51374;45.124;36.712;2023-02-11T04:17:41;0.00;0.00
64880;HTU21D;51374;45.124;36.712;2023-02-11T04:20:08;0.00;0.00
64880;HTU21D;51374;45.124;36.712;2023-02-11T04:22:35;0.00;0.00
64880;HTU21D;51374;45.124;36.712;2023-02-11T04:25:01;0.00;0.00
64880;HTU21D;51374;45.124;36.712;2023-02-11T04:27:27;0.00;0.00
64880;HTU21D;51374;45.124;36.712;2023-02-11T04:29:53;0.00;0.00
64880;HTU21D;51374;45.124;36.712;2023-02-11T04:32:18;0.00;0.00
64880;HTU21D;51374;45.124;36.712;2023-02-11T04:34:44;0.00;0.00
64880;HTU21D;51374;45.124;36.712;2023-02-11T04:37:10;0.00;0.00
64880;HTU21D;51374;45.124;36.712;2023-02-11T04:39:36;0.00;0.00
64880;HTU21D;51374;45.124;36.712;2023-02-11T04:42:02;0.00;0.00
64880;HTU21D;51374;45.124;36.712;2023-02-11T04:44:28;0.00;0.00
64880;HTU21D;51374;45.124;36.712;2023-02-11T04:46:54;0.00;0.00
64880;HTU21D;51374;45.124;36.712;2023-02-11T04:49:20;0.00;0.00
64880;HTU21D;51374;45.124;36.712;2023-02-11T04:51:45;0.00;0.00
64880;HTU21D;51374;45.124;36.712;2023-02-11T04:54:12;0.00;0.00
64880;HTU21D;51374;45.124;36.712;2023-02-11T04:56:38;0.00;0.00
64880;HTU21D;51374;45.124;36.712;2023-02-11T04:59:04;0.00;0.00
64880;HTU21D;51374;45.124;36.712;2023-02-11T05:01:30;0.00;0.00
64880;HTU21D;51374;45.124;36.712;2023-02-11T05:03:57;0.00;0.00
64880;HTU21D;51374;45.124;36.712;2023-02-11T05:06:23;0.00;0.00
64880;HTU21D;51374;45.124;36.712;2023-02-11T05:08:49;0.00;0.00
64880;HTU21D;51374;45.124;36.712;2023-02-11T05:11:19;0.00;0.00
64880;HTU21D;51374;45.124;36.712;2023-02-11T05:13:46;0.00;0.00
64880;HTU21D;51374;45.124;36.712;2023-02-11T05:16:13;0.00;0.00
64880;HTU21D;51374;45.124;36.712;2023-02-11T05:18:42;0.00;0.00
64880;HTU21D;51374;45.124;36.712;2023-02-11T05:21:11;0.00;0.00
64880;HTU21D;51374;45.124;36.712;2023-02-11T05:23:38;0.00;0.00
64880;HTU21D;51374;45.124;36.712;2023-02-11T05:26:05;0.00;0.00
64880;HTU21D;51374;45.124;36.712;2023-02-11T05:28:31;0.00;0.00
64880;HTU21D;51374;45.124;36.712;2023-02-11T05:30:57;0.00;0.00
64880;HTU21D;51374;45.124;36.712;2023-02-11T05:33:24;0.00;0.00
64880;HTU21D;51374;45.124;36.712;2023-02-11T05:35:50;0.00;0.00
64880;HTU21D;51374;45.124;36.712;2023-02-11T05:38:15;0.00;0.00
64880;HTU21D;51374;45.124;36.712;2023-02-11T05:40:42;0.00;0.00
64880;HTU21D;51374;45.124;36.712;2023-02-11T05:43:08;0.00;0.00
64880;HTU21D;51374;45.124;36.712;2023-02-11T05:45:33;0.00;0.00
64880;HTU21D;51374;45.124;36.712;2023-02-11T05:47:59;0.00;0.00
64880;HTU21D;51374;45.124;36.712;2023-02-11T05:50:25;0.00;0.00
64880;HTU21D;51374;45.124;36.712;2023-02-11T05:52:51;0.00;0.00
64880;HTU21D;51374;45.124;36.712;2023-02-11T05:55:17;0.00;0.00
64880;HTU21D;51374;45.124;36.712;2023-02-11T05:57:43;0.00;0.00
64880;HTU21D;51374;45.124;36.712;2023-02-11T06:00:09;0.00;0.00
64880;HTU21D;51374;45.124;36.712;2023-02-11T06:02:39;0.00;0.00
64880;HTU21D;51374;45.124;36.712;2023-02-11T06:05:05;0.00;0.00
64880;HTU21D;51374;45.124;36.712;2023-02-11T06:07:31;0.00;0.00
64880;HTU21D;51374;45.124;36.712;2023-02-11T06:09:57;0.00;0.00
64880;HTU21D;51374;45.124;36.712;2023-02-11T06:12:24;0.00;0.00
64880;HTU21D;51374;45.124;36.712;2023-02-11T06:14:50;0.00;0.00
64880;HTU21D;51374;45.124;36.712;2023-02-11T06:17:15;0.00;0.00
64880;HTU21D;51374;45.124;36.712;2023-02-11T06:19:41;0.00;0.00
64880;HTU21D;51374;45.124;36.712;2023-02-11T06:22:07;0.00;0.00
64880;HTU21D;51374;45.124;36.712;2023-02-11T06:24:33;0.00;0.00
64880;HTU21D;51374;45.124;36.712;2023-02-11T06:26:59;0.00;0.00
64880;HTU21D;51374;45.124;36.712;2023-02-11T06:29:25;0.00;0.00
64880;HTU21D;51374;45.124;36.712;2023-02-11T06:31:50;0.00;0.00
64880;HTU21D;51374;45.124;36.712;2023-02-11T06:34:16;0.00;0.00
64880;HTU21D;51374;45.124;36.712;2023-02-11T06:36:42;0.00;0.00
64880;HTU21D;51374;45.124;36.712;2023-02-11T06:39:09;0.00;0.00
64880;HTU21D;51374;45.124;36.712;2023-02-11T06:41:36;0.00;0.00
64880;HTU21D;51374;45.124;36.712;2023-02-11T06:44:02;0.00;0.00
64880;HTU21D;51374;45.124;36.712;2023-02-11T06:46:28;0.00;0.00
64880;HTU21D;51374;45.124;36.712;2023-02-11T06:48:54;0.00;0.00
64880;HTU21D;51374;45.124;36.712;2023-02-11T06:51:20;0.00;0.00
64880;HTU21D;51374;45.124;36.712;2023-02-11T06:53:46;0.00;0.00
64880;HTU21D;51374;45.124;36.712;2023-02-11T06:56:18;0.00;0.00
64880;HTU21D;51374;45.124;36.712;2023-02-11T06:58:45;0.00;0.00
64880;HTU21D;51374;45.124;36.712;2023-02-11T07:01:14;0.00;0.00
64880;HTU21D;51374;45.124;36.712;2023-02-11T07:03:42;0.00;0.00
64880;HTU21D;51374;45.124;36.712;2023-02-11T07:06:11;0.00;0.00
64880;HTU21D;51374;45.124;36.712;2023-02-11T07:08:37;0.00;0.00
64880;HTU21D;51374;45.124;36.712;2023-02-11T07:11:15;0.00;0.00
64880;HTU21D;51374;45.124;36.712;2023-02-11T07:13:41;0.00;0.00
64880;HTU21D;51374;45.124;36.712;2023-02-11T07:16:10;0.00;0.00
64880;HTU21D;51374;45.124;36.712;2023-02-11T07:18:37;0.00;0.00
64880;HTU21D;51374;45.124;36.712;2023-02-11T07:21:07;0.00;0.00
64880;HTU21D;51374;45.124;36.712;2023-02-11T07:23:34;0.00;0.00
64880;HTU21D;51374;45.124;36.712;2023-02-11T07:26:15;0.00;0.00
64880;HTU21D;51374;45.124;36.712;2023-02-11T07:28:42;0.00;0.00
64880;HTU21D;51374;45.124;36.712;2023-02-11T07:31:11;0.00;0.00
64880;HTU21D;51374;45.124;36.712;2023-02-11T07:33:37;0.00;0.00
64880;HTU21D;51374;45.124;36.712;2023-02-11T07:36:04;0.00;0.00
64880;HTU21D;51374;45.124;36.712;2023-02-11T07:38:32;0.00;0.00
64880;HTU21D;51374;45.124;36.712;2023-02-11T07:41:00;0.00;0.00
64880;HTU21D;51374;45.124;36.712;2023-02-11T07:43:26;0.00;0.00
64880;HTU21D;51374;45.124;36.712;2023-02-11T07:45:53;0.00;0.00
64880;HTU21D;51374;45.124;36.712;2023-02-11T07:48:19;0.00;0.00
64880;HTU21D;51374;45.124;36.712;2023-02-11T07:50:44;0.00;0.00
64880;HTU21D;51374;45.124;36.712;2023-02-11T07:53:10;0.00;0.00
64880;HTU21D;51374;45.124;36.712;2023-02-11T07:55:36;0.00;0.00
64880;HTU21D;51374;45.124;36.712;2023-02-11T07:58:02;0.00;0.00
64880;HTU21D;51374;45.124;36.712;2023-02-11T08:00:28;0.00;0.00
64880;HTU21D;51374;45.124;36.712;2023-02-11T08:02:56;0.00;0.00
64880;HTU21D;51374;45.124;36.712;2023-02-11T08:05:22;0.00;0.00
64880;HTU21D;51374;45.124;36.712;2023-02-11T08:07:52;0.00;0.00
64880;HTU21D;51374;45.124;36.712;2023-02-11T08:10:19;0.00;0.00
64880;HTU21D;51374;45.124;36.712;2023-02-11T08:12:45;0.00;0.00
64880;HTU21D;51374;45.124;36.712;2023-02-11T08:15:11;0.00;0.00
64880;HTU21D;51374;45.124;36.712;2023-02-11T08:17:37;0.00;0.00
64880;HTU21D;51374;45.124;36.712;2023-02-11T08:20:04;0.00;0.00
64880;HTU21D;51374;45.124;36.712;2023-02-11T08:22:32;0.00;0.00
64880;HTU21D;51374;45.124;36.712;2023-02-11T08:24:58;0.00;0.00
64880;HTU21D;51374;45.124;36.712;2023-02-11T08:27:24;0.00;0.00
64880;HTU21D;51374;45.124;36.712;2023-02-11T08:29:54;0.00;0.00
64880;HTU21D;51374;45.124;36.712;2023-02-11T08:32:20;0.00;0.00
64880;HTU21D;51374;45.124;36.712;2023-02-11T08:34:50;0.00;0.00
64880;HTU21D;51374;45.124;36.712;2023-02-11T08:37:17;0.00;0.00
64880;HTU21D;51374;45.124;36.712;2023-02-11T08:39:43;0.00;0.00
64880;HTU21D;51374;45.124;36.712;2023-02-11T08:42:12;0.00;0.00
64880;HTU21D;51374;45.124;36.712;2023-02-11T08:44:40;0.00;0.00
64880;HTU21D;51374;45.124;36.712;2023-02-11T08:47:05;0.00;0.00
64880;HTU21D;51374;45.124;36.712;2023-02-11T08:49:31;0.00;0.00
64880;HTU21D;51374;45.124;36.712;2023-02-11T08:51:59;0.00;0.00
64880;HTU21D;51374;45.124;36.712;2023-02-11T08:54:30;0.00;0.00
64880;HTU21D;51374;45.124;36.712;2023-02-11T08:56:56;0.00;0.00
64880;HTU21D;51374;45.124;36.712;2023-02-11T08:59:22;0.00;0.00
64880;HTU21D;51374;45.124;36.712;2023-02-11T09:01:48;0.00;0.00
64880;HTU21D;51374;45.124;36.712;2023-02-11T09:04:16;0.00;0.00
64880;HTU21D;51374;45.124;36.712;2023-02-11T09:06:42;0.00;0.00
64880;HTU21D;51374;45.124;36.712;2023-02-11T09:09:13;0.00;0.00
64880;HTU21D;51374;45.124;36.712;2023-02-11T09:11:41;0.00;0.00
64880;HTU21D;51374;45.124;36.712;2023-02-11T09:14:10;0.00;0.00
64880;HTU21D;51374;45.124;36.712;2023-02-11T09:16:39;0.00;0.00
64880;HTU21D;51374;45.124;36.712;2023-02-11T09:19:05;0.00;0.00
64880;HTU21D;51374;45.124;36.712;2023-02-11T09:21:31;0.00;0.00
64880;HTU21D;51374;45.124;36.712;2023-02-11T09:23:57;0.00;0.00
64880;HTU21D;51374;45.124;36.712;2023-02-11T09:26:28;0.00;0.00
64880;HTU21D;51374;45.124;36.712;2023-02-11T09:28:55;0.00;0.00
64880;HTU21D;51374;45.124;36.712;2023-02-11T09:31:23;0.00;0.00
64880;HTU21D;51374;45.124;36.712;2023-02-11T09:33:53;0.00;0.00
64880;HTU21D;51374;45.124;36.712;2023-02-11T09:36:25;0.00;0.00
64880;HTU21D;51374;45.124;36.712;2023-02-11T09:38:52;0.00;0.00
64880;HTU21D;51374;45.124;36.712;2023-02-11T09:43:45;0.00;0.00
64880;HTU21D;51374;45.124;36.712;2023-02-11T09:46:15;0.00;0.00
64880;HTU21D;51374;45.124;36.712;2023-02-11T09:48:43;0.00;0.00
64880;HTU21D;51374;45.124;36.712;2023-02-11T09:54:00;0.00;0.00
64880;HTU21D;51374;45.124;36.712;2023-02-11T09:56:28;0.00;0.00
64880;HTU21D;51374;45.124;36.712;2023-02-11T09:58:54;0.00;0.00
64880;HTU21D;51374;45.124;36.712;2023-02-11T10:01:39;0.00;0.00
64880;HTU21D;51374;45.124;36.712;2023-02-11T10:04:27;0.00;0.00
64880;HTU21D;51374;45.124;36.712;2023-02-11T10:07:22;0.00;0.00
64880;HTU21D;51374;45.124;36.712;2023-02-11T10:13:01;0.00;0.00
64880;HTU21D;51374;45.124;36.712;2023-02-11T10:21:33;0.00;0.00
64880;HTU21D;51374;45.124;36.712;2023-02-11T10:24:09;0.00;0.00
64880;HTU21D;51374;45.124;36.712;2023-02-11T10:26:37;0.00;0.00
64880;HTU21D;51374;45.124;36.712;2023-02-11T10:31:52;0.00;0.00
64880;HTU21D;51374;45.124;36.712;2023-02-11T10:34:18;0.00;0.00
64880;HTU21D;51374;45.124;36.712;2023-02-11T10:36:44;0.00;0.00
64880;HTU21D;51374;45.124;36.712;2023-02-11T10:39:24;0.00;0.00
64880;HTU21D;51374;45.124;36.712;2023-02-11T10:41:54;0.00;0.00
64880;HTU21D;51374;45.124;36.712;2023-02-11T10:44:26;0.00;0.00
64880;HTU21D;51374;45.124;36.712;2023-02-11T10:46:54;0.00;0.00
64880;HTU21D;51374;45.124;36.712;2023-02-11T10:49:39;0.00;0.00
64880;HTU21D;51374;45.124;36.712;2023-02-11T10:54:38;0.00;0.00
64880;HTU21D;51374;45.124;36.712;2023-02-11T10:57:04;0.00;0.00
64880;HTU21D;51374;45.124;36.712;2023-02-11T10:59:33;0.00;0.00
64880;HTU21D;51374;45.124;36.712;2023-02-11T11:02:20;0.00;0.00
64880;HTU21D;51374;45.124;36.712;2023-02-11T11:04:48;0.00;0.00
64880;HTU21D;51374;45.124;36.712;2023-02-11T11:12:31;0.00;0.00
64880;HTU21D;51374;45.124;36.712;2023-02-11T11:15:28;0.00;0.00
64880;HTU21D;51374;45.124;36.712;2023-02-11T11:18:14;0.00;0.00
64880;HTU21D;51374;45.124;36.712;2023-02-11T11:20:59;0.00;0.00
64880;HTU21D;51374;45.124;36.712;2023-02-11T11:23:29;0.00;0.00
64880;HTU21D;51374;45.124;36.712;2023-02-11T11:26:07;0.00;0.00
64880;HTU21D;51374;45.124;36.712;2023-02-11T11:28:38;0.00;0.00
64880;HTU21D;51374;45.124;36.712;2023-02-11T11:31:25;0.00;0.00
64880;HTU21D;51374;45.124;36.712;2023-02-11T11:33:54;0.00;0.00
64880;HTU21D;51374;45.124;36.712;2023-02-11T11:36:24;0.00;0.00
64880;HTU21D;51374;45.124;36.712;2023-02-11T11:38:57;0.00;0.00
64880;HTU21D;51374;45.124;36.712;2023-02-11T11:41:28;0.00;0.00
64880;HTU21D;51374;45.124;36.712;2023-02-11T11:43:59;0.00;0.00
64880;HTU21D;51374;45.124;36.712;2023-02-11T11:46:33;0.00;0.00
64880;HTU21D;51374;45.124;36.712;2023-02-11T11:49:06;0.00;0.00
64880;HTU21D;51374;45.124;36.712;2023-02-11T11:51:37;0.00;0.00
64880;HTU21D;51374;45.124;36.712;2023-02-11T11:54:12;0.00;0.00
64880;HTU21D;51374;45.124;36.712;2023-02-11T11:56:45;0.00;0.00
64880;HTU21D;51374;45.124;36.712;2023-02-11T11:59:12;0.00;0.00
64880;HTU21D;51374;45.124;36.712;2023-02-11T12:23:50;0.00;0.00
64880;HTU21D;51374;45.124;36.712;2023-02-11T12:26:20;0.00;0.00
64880;HTU21D;51374;45.124;36.712;2023-02-11T12:43:18;0.00;0.00
64880;HTU21D;51374;45.124;36.712;2023-02-11T12:54:31;0.00;0.00
64880;HTU21D;51374;45.124;36.712;2023-02-11T13:02:00;0.00;0.00
64880;HTU21D;51374;45.124;36.712;2023-02-11T13:04:33;0.00;0.00
64880;HTU21D;51374;45.124;36.712;2023-02-11T13:07:04;0.00;0.00
64880;HTU21D;51374;45.124;36.712;2023-02-11T13:09:38;0.00;0.00
64880;HTU21D;51374;45.124;36.712;2023-02-11T13:12:07;0.00;0.00
64880;HTU21D;51374;45.124;36.712;2023-02-11T13:14:55;0.00;0.00
64880;HTU21D;51374;45.124;36.712;2023-02-11T13:17:38;0.00;0.00
64880;HTU21D;51374;45.124;36.712;2023-02-11T13:22:58;0.00;0.00
64880;HTU21D;51374;45.124;36.712;2023-02-11T13:28:31;0.00;0.00
64880;HTU21D;51374;45.124;36.712;2023-02-11T13:31:01;0.00;0.00
64880;HTU21D;51374;45.124;36.712;2023-02-11T13:33:38;0.00;0.00
64880;HTU21D;51374;45.124;36.712;2023-02-11T13:38:34;0.00;0.00
64880;HTU21D;51374;45.124;36.712;2023-02-11T13:43:30;0.00;0.00
64880;HTU21D;51374;45.124;36.712;2023-02-11T13:46:05;0.00;0.00
64880;HTU21D;51374;45.124;36.712;2023-02-11T13:48:49;0.00;0.00
64880;HTU21D;51374;45.124;36.712;2023-02-11T13:51:40;0.00;0.00
64880;HTU21D;51374;45.124;36.712;2023-02-11T13:54:05;0.00;0.00
64880;HTU21D;51374;45.124;36.712;2023-02-11T13:56:35;0.00;0.00
64880;HTU21D;51374;45.124;36.712;2023-02-11T14:14:00;0.00;0.00
64880;HTU21D;51374;45.124;36.712;2023-02-11T14:16:23;0.00;0.00
64880;HTU21D;51374;45.124;36.712;2023-02-11T14:21:32;0.00;0.00
64880;HTU21D;51374;45.124;36.712;2023-02-11T14:26:32;0.00;0.00
64880;HTU21D;51374;45.124;36.712;2023-02-11T14:40:24;0.00;0.00
64880;HTU21D;51374;45.124;36.712;2023-02-11T14:42:52;0.00;0.00
64880;HTU21D;51374;45.124;36.712;2023-02-11T14:45:22;0.00;0.00
64880;HTU21D;51374;45.124;36.712;2023-02-11T14:47:55;0.00;0.00
64880;HTU21D;51374;45.124;36.712;2023-02-11T14:50:33;0.00;0.00
64880;HTU21D;51374;45.124;36.712;2023-02-11T14:53:02;0.00;0.00
64880;HTU21D;51374;45.124;36.712;2023-02-11T14:55:31;0.00;0.00
64880;HTU21D;51374;45.124;36.712;2023-02-11T14:58:28;0.00;0.00
64880;HTU21D;51374;45.124;36.712;2023-02-11T15:00:58;0.00;0.00
64880;HTU21D;51374;45.124;36.712;2023-02-11T15:06:16;0.00;0.00
64880;HTU21D;51374;45.124;36.712;2023-02-11T15:08:50;0.00;0.00
64880;HTU21D;51374;45.124;36.712;2023-02-11T15:11:20;0.00;0.00
64880;HTU21D;51374;45.124;36.712;2023-02-11T15:13:47;0.00;0.00
64880;HTU21D;51374;45.124;36.712;2023-02-11T15:16:24;0.00;0.00
64880;HTU21D;51374;45.124;36.712;2023-02-11T15:18:53;0.00;0.00
64880;HTU21D;51374;45.124;36.712;2023-02-11T15:21:38;0.00;0.00
64880;HTU21D;51374;45.124;36.712;2023-02-11T15:24:26;0.00;0.00
64880;HTU21D;51374;45.124;36.712;2023-02-11T15:27:17;0.00;0.00
64880;HTU21D;51374;45.124;36.712;2023-02-11T15:29:47;0.00;0.00
64880;HTU21D;51374;45.124;36.712;2023-02-11T15:34:40;0.00;0.00
64880;HTU21D;51374;45.124;36.712;2023-02-11T15:37:06;0.00;0.00
64880;HTU21D;51374;45.124;36.712;2023-02-11T15:39:38;0.00;0.00
64880;HTU21D;51374;45.124;36.712;2023-02-11T15:42:24;0.00;0.00
64880;HTU21D;51374;45.124;36.712;2023-02-11T15:45:30;0.00;0.00
64880;HTU21D;51374;45.124;36.712;2023-02-11T15:48:12;0.00;0.00
64880;HTU21D;51374;45.124;36.712;2023-02-11T15:50:41;0.00;0.00
64880;HTU21D;51374;45.124;36.712;2023-02-11T15:56:06;0.00;0.00
64880;HTU21D;51374;45.124;36.712;2023-02-11T15:58:37;0.00;0.00
64880;HTU21D;51374;45.124;36.712;2023-02-11T16:01:03;0.00;0.00
64880;HTU21D;51374;45.124;36.712;2023-02-11T16:03:29;0.00;0.00
64880;HTU21D;51374;45.124;36.712;2023-02-11T16:08:41;0.00;0.00
64880;HTU21D;51374;45.124;36.712;2023-02-11T16:11:33;0.00;0.00
64880;HTU21D;51374;45.124;36.712;2023-02-11T16:14:01;0.00;0.00
64880;HTU21D;51374;45.124;36.712;2023-02-11T16:16:32;0.00;0.00
64880;HTU21D;51374;45.124;36.712;2023-02-11T16:19:00;0.00;0.00
64880;HTU21D;51374;45.124;36.712;2023-02-11T16:21:32;0.00;0.00
64880;HTU21D;51374;45.124;36.712;2023-02-11T16:24:05;0.00;0.00
64880;HTU21D;51374;45.124;36.712;2023-02-11T16:26:39;0.00;0.00
64880;HTU21D;51374;45.124;36.712;2023-02-11T16:29:14;0.00;0.00
64880;HTU21D;51374;45.124;36.712;2023-02-11T16:31:45;0.00;0.00
64880;HTU21D;51374;45.124;36.712;2023-02-11T16:34:24;0.00;0.00
64880;HTU21D;51374;45.124;36.712;2023-02-11T16:36:51;0.00;0.00
64880;HTU21D;51374;45.124;36.712;2023-02-11T16:39:19;0.00;0.00
64880;HTU21D;51374;45.124;36.712;2023-02-11T16:41:48;0.00;0.00
64880;HTU21D;51374;45.124;36.712;2023-02-11T16:44:17;0.00;0.00
64880;HTU21D;51374;45.124;36.712;2023-02-11T16:46:43;0.00;0.00
64880;HTU21D;51374;45.124;36.712;2023-02-11T16:49:15;0.00;0.00
64880;HTU21D;51374;45.124;36.712;2023-02-11T16:51:42;0.00;0.00
64880;HTU21D;51374;45.124;36.712;2023-02-11T16:54:13;0.00;0.00
64880;HTU21D;51374;45.124;36.712;2023-02-11T16:56:39;0.00;0.00
64880;HTU21D;51374;45.124;36.712;2023-02-11T16:59:05;0.00;0.00
64880;HTU21D;51374;45.124;36.712;2023-02-11T17:01:32;0.00;0.00
64880;HTU21D;51374;45.124;36.712;2023-02-11T17:03:58;0.00;0.00
64880;HTU21D;51374;45.124;36.712;2023-02-11T17:06:24;0.00;0.00
64880;HTU21D;51374;45.124;36.712;2023-02-11T17:08:51;0.00;0.00
64880;HTU21D;51374;45.124;36.712;2023-02-11T17:11:17;0.00;0.00
64880;HTU21D;51374;45.124;36.712;2023-02-11T17:13:44;0.00;0.00
64880;HTU21D;51374;45.124;36.712;2023-02-11T17:16:21;0.00;0.00
64880;HTU21D;51374;45.124;36.712;2023-02-11T17:18:49;0.00;0.00
64880;HTU21D;51374;45.124;36.712;2023-02-11T17:21:15;0.00;0.00
64880;HTU21D;51374;45.124;36.712;2023-02-11T17:23:41;0.00;0.00
64880;HTU21D;51374;45.124;36.712;2023-02-11T17:26:08;0.00;0.00
64880;HTU21D;51374;45.124;36.712;2023-02-11T17:28:34;0.00;0.00
64880;HTU21D;51374;45.124;36.712;2023-02-11T17:31:00;0.00;0.00
64880;HTU21D;51374;45.124;36.712;2023-02-11T17:33:31;0.00;0.00
64880;HTU21D;51374;45.124;36.712;2023-02-11T17:35:56;0.00;0.00
64880;HTU21D;51374;45.124;36.712;2023-02-11T17:38:22;0.00;0.00
64880;HTU21D;51374;45.124;36.712;2023-02-11T17:40:59;0.00;0.00
64880;HTU21D;51374;45.124;36.712;2023-02-11T17:43:25;0.00;0.00
64880;HTU21D;51374;45.124;36.712;2023-02-11T17:45:51;0.00;0.00
64880;HTU21D;51374;45.124;36.712;2023-02-11T17:48:17;0.00;0.00
64880;HTU21D;51374;45.124;36.712;2023-02-11T17:50:43;2.06;82.17
64880;HTU21D;51374;45.124;36.712;2023-02-11T17:53:09;2.08;82.17
64880;HTU21D;51374;45.124;36.712;2023-02-11T17:55:35;2.11;82.20
64880;HTU21D;51374;45.124;36.712;2023-02-11T17:58:03;2.12;82.16
64880;HTU21D;51374;45.124;36.712;2023-02-11T18:00:29;2.17;82.20
64880;HTU21D;51374;45.124;36.712;2023-02-11T18:02:55;2.22;82.18
64880;HTU21D;51374;45.124;36.712;2023-02-11T18:05:22;2.25;82.19
64880;HTU21D;51374;45.124;36.712;2023-02-11T18:07:50;2.30;82.16
64880;HTU21D;51374;45.124;36.712;2023-02-11T18:10:16;2.36;82.09
64880;HTU21D;51374;45.124;36.712;2023-02-11T18:12:42;2.37;82.07
64880;HTU21D;51374;45.124;36.712;2023-02-11T18:15:08;2.38;82.04
64880;HTU21D;51374;45.124;36.712;2023-02-11T18:17:34;2.41;82.09
64880;HTU21D;51374;45.124;36.712;2023-02-11T18:20:00;2.43;82.12
64880;HTU21D;51374;45.124;36.712;2023-02-11T18:22:28;2.45;82.03
64880;HTU21D;51374;45.124;36.712;2023-02-11T18:24:58;2.47;82.06
64880;HTU21D;51374;45.124;36.712;2023-02-11T18:27:23;2.49;82.05
64880;HTU21D;51374;45.124;36.712;2023-02-11T18:29:49;2.51;82.08